Terminal Aerodrome Forecast
Issued by NWS

Home | Current Version | Previous Version | Text Only | Print | Product List | Glossary On
Versions: 1 2 3 4 5 6 7 8 9 10 11 12 13 14 15 16 17 18 19 20 21 22 23 24 25 26 27 28 29 30 31 32
000
FTUS46 KMTR 202149 AAC
TAFSFO
TAF AMD
KSFO 202149Z 2022/2124 26014KT P6SM FEW010 SCT025 BKN050
     FM202300 27016G23KT P6SM FEW015 SCT030 BKN040
      TEMPO 2023/2103 BKN030
     FM210300 26015G22KT P6SM OVC020
     FM210700 26014KT P6SM OVC015
     FM211200 27014KT P6SM BKN012
     FM211800 27015KT P6SM SCT015=

USA.gov is the U.S. government's official web portal to all federal, state and local government web resources and services.